This is the latest recevied weather packets stored in our database for station/object N0SWP-3. If no packets are shown the sender has not sent any weather packets the latest 10 day(s).
| Time | Temp. | Humidity | Pressure | Rain* | Wind** | Luminosity | Snow |
|---|---|---|---|---|---|---|---|
| 1777372338 | 8.89° C | 82% | 1016.3 hPa | 0 mm | - | - | - |
| 1777371663 | 8.89° C | 82% | 1015.5 hPa | 0 mm | - | - | - |
| 1777371124 | 8.89° C | 82% | 1014.6 hPa | 0 mm | - | - | - |
| 1777369504 | 8.89° C | 82% | 1015 hPa | 0 mm | - | - | - |
| 1777366264 | 8.89° C | 82% | 1014.4 hPa | 0 mm | - | - | - |
| 1777365723 | 8.89° C | 81% | 1014.3 hPa | 0 mm | - | - | - |
| 1777365543 | 9.44° C | 81% | 1014.2 hPa | 0 mm | - | - | - |
| 1777363157 | 9.44° C | 81% | 1014.9 hPa | 0 mm | - | - | - |
| 1777362483 | 10° C | 80% | 1014.9 hPa | 0 mm | - | - | - |
| 1777361223 | 10.56° C | 80% | 1015.2 hPa | 0 mm | - | - | - |
| 1777360503 | 10.56° C | 80% | 1015.5 hPa | 0 mm | - | - | - |
| 1777359063 | 10.56° C | 82% | 1015.5 hPa | 0 mm | - | - | - |
| 1777358884 | 10.56° C | 82% | 1015.6 hPa | 0 mm | - | - | - |
| 1777358343 | 10.56° C | 84% | 1015.5 hPa | 0 mm | - | - | - |
| 1777355104 | 11.67° C | 80% | 1014.8 hPa | 0 mm | - | - | - |
| 1777354203 | 12.22° C | 79% | 1014.4 hPa | 0 mm | - | - | - |
| 1777353303 | 12.22° C | 79% | 1014.2 hPa | 0 mm | - | - | - |
| 1777353123 | 12.22° C | 79% | 1014.2 hPa | 0 mm | - | - | - |
| 1777352763 | 12.22° C | 78% | 1014.2 hPa | 0 mm | - | - | - |
| 1777351683 | 12.78° C | 78% | 1014.1 hPa | 0 mm | - | - | - |
| 1777351143 | 12.78° C | 78% | 1014 hPa | 0 mm | - | - | - |
| 1777350603 | 13.33° C | 76% | 1014 hPa | 0 mm | - | - | - |
| 1777349343 | 13.33° C | 77% | 1014.2 hPa | 0 mm | - | - | - |
| 1777348083 | 13.89° C | 76% | 1014.2 hPa | 0 mm | - | - | - |
| 1777346643 | 14.44° C | 75% | 1013.8 hPa | 0 mm | - | - | - |
* Rain latest hour (hover to see other rain measurements)
** Current wind speed in m/s (hover to see current wind gust speed)